Time;durP1;ratioP1;P1;durP2;ratioP2;P2;SDS_P1;SDS_P2;PMS_P1;PMS_P2;Temp;Humidity;BMP_temperature;BMP_pressure;BME280_temperature;BME280_humidity;BME280_pressure;Samples;Min_cycle;Max_cycle;Signal;HPM_P1;HPM_P2
2023/11/04 00:03:21;;;;;;;;;;;;;;;20.26;41.07;93649.41;10474713;28;2610;-59
2023/11/04 00:08:22;;;;;;;;;;;;;;;20.23;41.04;93652.69;10473261;28;2676;-60
2023/11/04 00:13:22;;;;;;;;;;;;;;;20.22;41.08;93653.75;10491880;28;2533;-60
2023/11/04 00:18:23;;;;;;;;;;;;;;;20.20;41.14;93655.16;10477305;28;2539;-59
2023/11/04 00:23:23;;;;;;;;;;;;;;;20.18;40.78;93654.69;10474262;28;2588;-58
2023/11/04 00:28:23;;;;;;;;;;;;;;;20.15;41.06;93658.72;10494191;28;2847;-59
2023/11/04 00:33:24;;;;;;;;;;;;;;;20.13;41.03;93655.63;10487849;28;2558;-60
2023/11/04 00:38:24;;;;;;;;;;;;;;;20.11;40.75;93663.06;10476014;28;2576;-60
2023/11/04 00:43:25;;;;;;;;;;;;;;;20.10;41.09;93658.16;10471153;28;2569;-59
2023/11/04 00:48:25;;;;;;;;;;;;;;;20.07;41.14;93671.94;10479753;28;2607;-60
2023/11/04 00:53:26;;;;;;;;;;;;;;;20.06;40.88;93670.41;10482654;28;5251;-60
2023/11/04 00:58:26;;;;;;;;;;;;;;;20.03;40.91;93668.41;10480443;28;2692;-60
2023/11/04 01:03:26;;;;;;;;;;;;;;;20.01;41.23;93673.22;10492119;28;2672;-60
2023/11/04 01:08:26;;;;;;;;;;;;;;;19.99;41.03;93675.41;10483547;28;2925;-60
2023/11/04 01:13:27;;;;;;;;;;;;;;;19.98;40.86;93673.84;10478189;28;2565;-60
2023/11/04 01:18:27;;;;;;;;;;;;;;;19.95;41.14;93682.38;10476498;28;2599;-60
2023/11/04 01:23:27;;;;;;;;;;;;;;;19.93;40.83;93676.66;10477160;28;2557;-60
2023/11/04 01:28:28;;;;;;;;;;;;;;;19.92;40.94;93672.50;10470948;28;2588;-60
2023/11/04 01:33:28;;;;;;;;;;;;;;;19.91;41.05;93670.94;10473252;28;2675;-59
2023/11/04 01:38:28;;;;;;;;;;;;;;;19.88;41.04;93680.25;10477364;28;2517;-58
2023/11/04 01:43:29;;;;;;;;;;;;;;;19.85;40.74;93686.16;10481676;28;2598;-60
2023/11/04 01:48:29;;;;;;;;;;;;;;;19.85;40.77;93691.41;10479368;28;2526;-60
2023/11/04 01:53:30;;;;;;;;;;;;;;;19.84;40.71;93694.34;10480895;28;5053;-60
2023/11/04 01:58:30;;;;;;;;;;;;;;;19.81;40.85;93697.59;10456397;28;2600;-60
2023/11/04 02:03:30;;;;;;;;;;;;;;;19.78;40.57;93690.38;10475355;28;2564;-60
2023/11/04 02:08:31;;;;;;;;;;;;;;;19.77;40.80;93694.84;10480337;28;2545;-60
2023/11/04 02:13:31;;;;;;;;;;;;;;;19.77;40.84;93694.06;10448016;28;2684;-60
2023/11/04 02:18:31;;;;;;;;;;;;;;;19.75;40.72;93701.50;10469863;28;2674;-60
2023/11/04 02:23:32;;;;;;;;;;;;;;;19.72;40.88;93691.63;10474536;28;2636;-60
2023/11/04 02:28:32;;;;;;;;;;;;;;;19.71;40.55;93698.75;10458689;28;2546;-60
2023/11/04 02:33:32;;;;;;;;;;;;;;;19.70;40.59;93696.44;10490010;28;2714;-60
2023/11/04 02:38:33;;;;;;;;;;;;;;;19.68;40.65;93703.88;10478465;28;2586;-60
2023/11/04 02:43:33;;;;;;;;;;;;;;;19.66;40.80;93696.28;10477299;28;2537;-60
2023/11/04 02:48:33;;;;;;;;;;;;;;;19.65;40.63;93699.22;10470074;28;2706;-60
2023/11/04 02:53:34;;;;;;;;;;;;;;;19.63;40.64;93699.56;10474354;28;2673;-60
2023/11/04 02:58:34;;;;;;;;;;;;;;;19.62;40.81;93697.25;10448128;28;2589;-60
2023/11/04 03:03:34;;;;;;;;;;;;;;;19.61;40.53;93698.31;10477990;28;2678;-60
2023/11/04 03:08:35;;;;;;;;;;;;;;;19.60;40.54;93688.91;10477340;28;2532;-63
2023/11/04 03:13:36;;;;;;;;;;;;;;;19.58;40.63;93691.84;10473293;28;2509;-58
2023/11/04 03:18:37;;;;;;;;;;;;;;;19.56;40.46;93691.38;10463506;28;2613;-60
2023/11/04 03:23:37;;;;;;;;;;;;;;;19.55;40.63;93696.97;10469773;28;2540;-60
2023/11/04 03:28:40;;;;;;;;;;;;;;;19.53;40.49;93699.91;10482445;28;2557;-60
2023/11/04 03:33:40;;;;;;;;;;;;;;;19.51;40.78;93696.06;10471181;28;2590;-59
2023/11/04 03:38:40;;;;;;;;;;;;;;;19.49;40.63;93712.88;10494060;28;2566;-60
2023/11/04 03:43:41;;;;;;;;;;;;;;;19.48;40.71;93708.75;10480541;28;2744;-60
2023/11/04 03:48:41;;;;;;;;;;;;;;;19.47;40.69;93706.44;10458696;28;2652;-59
2023/11/04 03:53:41;;;;;;;;;;;;;;;19.45;40.48;93698.09;10472698;28;5069;-60
2023/11/04 03:58:41;;;;;;;;;;;;;;;19.43;40.56;93690.50;10464225;28;2701;-60
2023/11/04 04:03:42;;;;;;;;;;;;;;;19.42;40.47;93686.34;10479082;28;2638;-60
2023/11/04 04:08:42;;;;;;;;;;;;;;;19.41;41.00;93676.91;10475312;28;2657;-60
2023/11/04 04:13:42;;;;;;;;;;;;;;;19.39;40.61;93673.84;10469779;28;2549;-60
2023/11/04 04:18:42;;;;;;;;;;;;;;;19.37;40.45;93665.50;10479062;28;2632;-60
2023/11/04 04:23:43;;;;;;;;;;;;;;;19.37;40.97;93664.75;10501336;28;2559;-60
2023/11/04 04:28:43;;;;;;;;;;;;;;;19.35;40.43;93665.03;10483143;28;2641;-60
2023/11/04 04:33:44;;;;;;;;;;;;;;;19.35;40.77;93661.66;10468534;28;2620;-60
2023/11/04 04:38:45;;;;;;;;;;;;;;;19.33;40.70;93656.69;10477477;28;2564;-60
2023/11/04 04:43:45;;;;;;;;;;;;;;;19.31;40.44;93648.34;10464022;28;2887;-59
2023/11/04 04:48:45;;;;;;;;;;;;;;;19.31;40.48;93645.72;10482427;28;2627;-59
2023/11/04 04:53:45;;;;;;;;;;;;;;;19.29;40.67;93650.50;10484196;28;5041;-60
2023/11/04 04:58:46;;;;;;;;;;;;;;;19.28;40.76;93641.09;10481850;28;2537;-60
2023/11/04 05:03:46;;;;;;;;;;;;;;;19.25;40.45;93636.47;10484196;28;2541;-59
2023/11/04 05:08:46;;;;;;;;;;;;;;;19.27;40.70;93644.81;10478852;28;2601;-61
2023/11/04 05:13:47;;;;;;;;;;;;;;;19.29;40.96;93642.63;10481145;28;2592;-60
2023/11/04 05:18:48;;;;;;;;;;;;;;;19.34;41.61;93639.88;10481070;28;2572;-60
2023/11/04 05:23:50;;;;;;;;;;;;;;;19.39;41.47;93638.94;10466006;28;2907;-60
2023/11/04 05:28:50;;;;;;;;;;;;;;;19.45;41.47;93635.78;10461244;28;2636;-59
2023/11/04 05:33:50;;;;;;;;;;;;;;;19.52;41.17;93637.13;10480673;28;2639;-58
2023/11/04 05:38:50;;;;;;;;;;;;;;;19.59;41.56;93629.53;10481054;28;2573;-60
2023/11/04 05:43:51;;;;;;;;;;;;;;;19.65;41.22;93620.38;10475765;28;2590;-60
2023/11/04 05:48:51;;;;;;;;;;;;;;;19.72;41.17;93628.56;10478255;28;2584;-60
2023/11/04 05:53:51;;;;;;;;;;;;;;;19.77;41.03;93612.56;10458769;28;5073;-60
2023/11/04 05:58:52;;;;;;;;;;;;;;;19.82;40.95;93610.56;10476007;28;2529;-60
2023/11/04 06:03:52;;;;;;;;;;;;;;;19.86;40.86;93608.03;10475151;28;2620;-60
2023/11/04 06:08:52;;;;;;;;;;;;;;;19.91;40.76;93608.63;10475214;28;2633;-59
2023/11/04 06:13:53;;;;;;;;;;;;;;;19.93;40.75;93598.56;10479567;28;2579;-59
2023/11/04 06:18:53;;;;;;;;;;;;;;;19.98;40.62;93590.47;10474687;28;2549;-60
2023/11/04 06:23:53;;;;;;;;;;;;;;;20.03;40.34;93590.28;10477786;28;2593;-61
2023/11/04 06:28:54;;;;;;;;;;;;;;;20.05;40.62;93582.09;10475179;28;2708;-60
2023/11/04 06:33:54;;;;;;;;;;;;;;;20.09;40.29;93577.72;10474652;28;2580;-60
2023/11/04 06:38:54;;;;;;;;;;;;;;;20.10;40.19;93572.13;10476156;28;2647;-59
2023/11/04 06:43:55;;;;;;;;;;;;;;;20.13;40.38;93571.47;10470309;28;2759;-60
2023/11/04 06:48:55;;;;;;;;;;;;;;;20.17;39.93;93561.09;10462883;28;2561;-60
2023/11/04 06:53:56;;;;;;;;;;;;;;;20.18;40.33;93558.13;10479316;28;5084;-60
2023/11/04 06:58:56;;;;;;;;;;;;;;;20.21;40.00;93568.06;10476755;28;2676;-60
2023/11/04 07:03:56;;;;;;;;;;;;;;;20.23;40.03;93557.19;10475779;28;2611;-60
2023/11/04 07:08:57;;;;;;;;;;;;;;;20.25;39.87;93558.41;10476028;28;2669;-60
2023/11/04 07:13:57;;;;;;;;;;;;;;;20.28;40.04;93562.25;10469734;28;2628;-60
2023/11/04 07:18:57;;;;;;;;;;;;;;;20.29;39.71;93553.28;10462403;28;2549;-60
2023/11/04 07:23:58;;;;;;;;;;;;;;;20.29;39.61;93550.66;10472773;28;2572;-60
2023/11/04 07:28:58;;;;;;;;;;;;;;;20.30;39.53;93543.53;10472159;28;2704;-60
2023/11/04 07:33:58;;;;;;;;;;;;;;;20.31;39.63;93545.03;10482502;28;2537;-60
2023/11/04 07:38:59;;;;;;;;;;;;;;;20.33;39.88;93535.75;10473594;28;2534;-60
2023/11/04 07:43:59;;;;;;;;;;;;;;;20.34;39.88;93523.38;10476620;28;2580;-60
2023/11/04 07:48:59;;;;;;;;;;;;;;;20.36;39.72;93518.53;10480883;28;2588;-60
2023/11/04 07:53:59;;;;;;;;;;;;;;;20.38;39.78;93505.84;10484305;28;5304;-60
2023/11/04 07:59:00;;;;;;;;;;;;;;;20.42;39.92;93502.22;10479601;28;2572;-59
2023/11/04 08:04:00;;;;;;;;;;;;;;;20.45;39.83;93503.41;10482737;28;2651;-60
2023/11/04 08:09:00;;;;;;;;;;;;;;;20.46;39.72;93495.22;10485724;28;2676;-60
2023/11/04 08:14:00;;;;;;;;;;;;;;;20.48;40.03;93493.03;10458900;28;2604;-59
2023/11/04 08:19:01;;;;;;;;;;;;;;;20.51;40.53;93475.78;10472959;28;2628;-59
2023/11/04 08:24:01;;;;;;;;;;;;;;;20.55;39.86;93466.94;10460632;28;2589;-60
2023/11/04 08:29:01;;;;;;;;;;;;;;;20.58;39.92;93455.75;10476779;28;2630;-60
2023/11/04 08:34:02;;;;;;;;;;;;;;;20.56;41.71;93442.16;10472250;28;2607;-60
2023/11/04 08:39:02;;;;;;;;;;;;;;;20.63;41.02;93431.09;10484068;28;2600;-60
2023/11/04 08:44:03;;;;;;;;;;;;;;;20.64;41.29;93430.75;10477118;28;2624;-59
2023/11/04 08:49:04;;;;;;;;;;;;;;;20.64;41.23;93437.88;10477667;28;2553;-60
2023/11/04 08:54:05;;;;;;;;;;;;;;;20.65;41.76;93432.28;10470088;28;4770;-62
2023/11/04 08:59:05;;;;;;;;;;;;;;;20.66;40.79;93423.28;10476543;28;2685;-61
2023/11/04 09:04:05;;;;;;;;;;;;;;;20.65;41.29;93405.94;10476816;28;2627;-61
2023/11/04 09:09:07;;;;;;;;;;;;;;;20.61;42.98;93396.44;10476909;28;2715;-61
2023/11/04 09:14:07;;;;;;;;;;;;;;;20.60;42.72;93382.50;10472875;28;2553;-60
2023/11/04 09:19:07;;;;;;;;;;;;;;;20.60;42.50;93374.59;10469427;28;2548;-60
2023/11/04 09:24:08;;;;;;;;;;;;;;;20.58;44.07;93373.38;10458774;28;2578;-59
2023/11/04 09:29:08;;;;;;;;;;;;;;;20.56;43.92;93372.94;10475419;28;2600;-60
2023/11/04 09:34:08;;;;;;;;;;;;;;;20.55;44.11;93353.75;10469907;28;2608;-60
2023/11/04 09:39:09;;;;;;;;;;;;;;;20.55;43.81;93350.34;10441548;28;2735;-60
2023/11/04 09:44:10;;;;;;;;;;;;;;;20.55;43.70;93345.09;10464433;28;2545;-59
2023/11/04 09:49:13;;;;;;;;;;;;;;;20.54;43.80;93339.06;10465393;28;2560;-59
2023/11/04 09:54:13;;;;;;;;;;;;;;;20.52;44.20;93329.97;10468119;28;2604;-59
2023/11/04 09:59:13;;;;;;;;;;;;;;;20.49;44.16;93320.09;10446497;28;2651;-60
2023/11/04 10:04:13;;;;;;;;;;;;;;;20.49;43.83;93312.97;10478387;28;2597;-60
2023/11/04 10:09:14;;;;;;;;;;;;;;;20.47;44.30;93303.88;10470007;28;2688;-60
2023/11/04 10:14:14;;;;;;;;;;;;;;;20.45;44.32;93309.47;10458520;28;2596;-60
2023/11/04 10:19:14;;;;;;;;;;;;;;;20.45;44.63;93293.69;10469681;28;2553;-59
2023/11/04 10:24:15;;;;;;;;;;;;;;;20.42;44.59;93272.53;10453755;28;2612;-60
2023/11/04 10:29:15;;;;;;;;;;;;;;;20.39;44.59;93265.28;10449665;28;2662;-60
2023/11/04 10:34:15;;;;;;;;;;;;;;;20.39;44.83;93265.28;10471074;28;3190;-60
2023/11/04 10:39:16;;;;;;;;;;;;;;;20.35;44.84;93246.78;10453933;28;2608;-60
2023/11/04 10:44:18;;;;;;;;;;;;;;;20.36;44.75;93237.78;10447300;28;2614;-59
2023/11/04 10:49:33;;;;;;;;;;;;;;;20.34;44.87;93229.44;10467076;28;2639;-59
2023/11/04 10:54:41;;;;;;;;;;;;;;;20.35;44.67;93233.63;10471841;28;4652;-59
2023/11/04 10:59:50;;;;;;;;;;;;;;;20.33;44.97;93211.38;10449219;28;2548;-59
2023/11/04 11:04:51;;;;;;;;;;;;;;;20.33;44.95;93196.34;10451508;28;2568;-60
2023/11/04 11:09:51;;;;;;;;;;;;;;;20.33;45.17;93200.84;10452316;28;2639;-59
2023/11/04 11:14:52;;;;;;;;;;;;;;;20.31;45.30;93184.63;10455760;28;2635;-59
2023/11/04 11:19:52;;;;;;;;;;;;;;;20.31;45.13;93182.00;10446777;28;2601;-59
2023/11/04 11:24:56;;;;;;;;;;;;;;;20.28;45.35;93178.16;10471274;28;2694;-60
2023/11/04 11:30:02;;;;;;;;;;;;;;;20.25;45.34;93163.06;10449821;28;2594;-59
2023/11/04 11:35:04;;;;;;;;;;;;;;;20.23;45.20;93165.25;10465355;28;2579;-59
2023/11/04 11:40:11;;;;;;;;;;;;;;;20.23;44.99;93157.38;10475049;28;2577;-59
2023/11/04 11:45:12;;;;;;;;;;;;;;;20.17;45.24;93129.72;10462190;28;2590;-59
2023/11/04 11:50:12;;;;;;;;;;;;;;;20.14;45.42;93104.09;10469526;28;2616;-59
2023/11/04 11:55:13;;;;;;;;;;;;;;;20.14;45.56;93083.03;10471102;28;4574;-59
2023/11/04 12:00:13;;;;;;;;;;;;;;;20.13;45.54;93071.00;10474804;28;2691;-60
2023/11/04 12:05:14;;;;;;;;;;;;;;;20.15;45.67;93066.91;10465892;28;6420;-60
2023/11/04 12:10:14;;;;;;;;;;;;;;;20.16;46.09;93038.75;10463485;28;5309;-60
2023/11/04 12:15:14;;;;;;;;;;;;;;;20.19;47.33;93032.84;10449285;28;7088;-59
2023/11/04 12:20:17;;;;;;;;;;;;;;;20.17;47.53;93024.53;10466246;28;5422;-61
2023/11/04 12:25:18;;;;;;;;;;;;;;;20.17;47.52;93027.16;10469741;28;5459;-60
2023/11/04 12:30:21;;;;;;;;;;;;;;;20.17;47.44;93019.28;10459031;28;5418;-60
2023/11/04 12:35:22;;;;;;;;;;;;;;;20.16;47.72;92983.53;10480328;28;2548;-60
2023/11/04 12:40:23;;;;;;;;;;;;;;;20.18;47.65;92970.81;10480877;28;2663;-59
2023/11/04 12:45:23;;;;;;;;;;;;;;;20.21;48.21;92970.19;10454832;28;2702;-59
2023/11/04 12:50:23;;;;;;;;;;;;;;;20.21;47.96;92972.81;10454943;28;5382;-60
2023/11/04 12:55:24;;;;;;;;;;;;;;;20.19;48.06;92952.13;10464077;28;2624;-60
2023/11/04 13:00:26;;;;;;;;;;;;;;;20.19;47.74;92943.41;10473602;28;2621;-59
2023/11/04 13:05:26;;;;;;;;;;;;;;;20.16;47.65;92934.34;10465855;28;2670;-59
2023/11/04 13:10:26;;;;;;;;;;;;;;;20.13;47.60;92924.47;10470021;28;2678;-59
2023/11/04 13:15:26;;;;;;;;;;;;;;;20.12;47.49;92925.59;10456606;28;2596;-57
2023/11/04 13:20:27;;;;;;;;;;;;;;;20.09;47.47;92907.84;10475903;28;6505;-59
2023/11/04 13:25:29;;;;;;;;;;;;;;;20.07;47.67;92909.31;10470663;28;2589;-60
2023/11/04 13:30:30;;;;;;;;;;;;;;;20.08;48.49;92908.97;10475011;28;2586;-60
2023/11/04 13:35:30;;;;;;;;;;;;;;;20.08;49.49;92908.97;10473722;28;2571;-59
2023/11/04 13:40:30;;;;;;;;;;;;;;;20.09;49.88;92891.31;10461237;28;2569;-59
2023/11/04 13:45:31;;;;;;;;;;;;;;;20.09;50.10;92875.56;10457659;28;2615;-59
2023/11/04 13:50:31;;;;;;;;;;;;;;;20.10;50.53;92846.28;10472828;28;2716;-59
2023/11/04 13:55:31;;;;;;;;;;;;;;;20.08;50.61;92842.47;10472600;28;2609;-59
2023/11/04 14:00:32;;;;;;;;;;;;;;;20.08;50.29;92837.19;10471311;28;2581;-59
2023/11/04 14:05:32;;;;;;;;;;;;;;;20.05;49.88;92833.38;10451317;28;2598;-59
2023/11/04 14:10:33;;;;;;;;;;;;;;;20.05;48.76;92843.88;10475362;28;2820;-59
2023/11/04 14:15:33;;;;;;;;;;;;;;;20.01;50.13;92889.63;10480019;28;2569;-60
2023/11/04 14:20:34;;;;;;;;;;;;;;;20.00;49.49;92893.34;10455138;28;5108;-60
2023/11/04 14:25:34;;;;;;;;;;;;;;;19.99;48.94;92873.44;10475546;28;3008;-59
2023/11/04 14:30:35;;;;;;;;;;;;;;;19.96;48.92;92863.56;10477535;28;2628;-60
2023/11/04 14:35:35;;;;;;;;;;;;;;;19.93;49.91;92864.22;10468641;28;2601;-60
2023/11/04 14:40:35;;;;;;;;;;;;;;;19.95;49.14;92856.78;10466566;28;2542;-59
2023/11/04 14:45:35;;;;;;;;;;;;;;;19.95;49.70;92851.50;10469355;28;2615;-59
2023/11/04 14:50:38;;;;;;;;;;;;;;;19.97;48.30;92846.72;10475374;28;2674;-59
2023/11/04 14:55:38;;;;;;;;;;;;;;;20.00;46.43;92840.75;10483641;28;2733;-59
2023/11/04 15:00:38;;;;;;;;;;;;;;;20.01;46.89;92842.31;10468500;28;2635;-59
2023/11/04 15:05:40;;;;;;;;;;;;;;;20.06;46.94;92850.69;10471016;28;2542;-59
2023/11/04 15:10:40;;;;;;;;;;;;;;;20.07;47.10;92846.94;10460391;28;2662;-59
2023/11/04 15:15:40;;;;;;;;;;;;;;;20.12;46.68;92872.22;10466685;28;2595;-59
2023/11/04 15:20:43;;;;;;;;;;;;;;;20.14;46.58;92897.09;10473823;28;5101;-59
2023/11/04 15:25:43;;;;;;;;;;;;;;;20.17;46.23;92895.66;10462959;28;2566;-59
2023/11/04 15:30:43;;;;;;;;;;;;;;;20.20;46.23;92910.78;10464106;28;2541;-58
2023/11/04 15:35:43;;;;;;;;;;;;;;;20.26;47.39;92919.94;10476296;28;2514;-58
2023/11/04 15:40:44;;;;;;;;;;;;;;;20.34;46.46;92918.25;10470721;28;2496;-59
2023/11/04 15:45:44;;;;;;;;;;;;;;;20.40;46.39;92903.75;10456173;28;2621;-59
2023/11/04 15:50:44;;;;;;;;;;;;;;;20.49;46.71;92910.34;10469518;28;2561;-59
2023/11/04 15:55:45;;;;;;;;;;;;;;;20.55;46.29;92935.31;10432511;28;6861;-59
2023/11/04 16:00:45;;;;;;;;;;;;;;;20.62;46.35;92943.38;10465109;28;5717;-59
2023/11/04 16:05:45;;;;;;;;;;;;;;;20.67;46.56;92958.16;10476878;28;3801;-59
2023/11/04 16:10:46;;;;;;;;;;;;;;;20.73;46.61;92969.97;10457907;28;2554;-59
2023/11/04 16:15:46;;;;;;;;;;;;;;;20.78;46.29;92973.09;10456897;28;5637;-59
2023/11/04 16:20:47;;;;;;;;;;;;;;;20.80;45.77;92965.63;10476221;28;2780;-59
2023/11/04 16:25:47;;;;;;;;;;;;;;;20.86;45.68;92971.38;10475013;28;2627;-60
2023/11/04 16:30:47;;;;;;;;;;;;;;;20.87;45.85;92946.59;10466729;28;5169;-59
2023/11/04 16:35:47;;;;;;;;;;;;;;;20.88;46.24;92935.72;10493603;28;2689;-60
2023/11/04 16:40:48;;;;;;;;;;;;;;;20.89;45.88;92937.25;10458141;28;2625;-60
2023/11/04 16:45:48;;;;;;;;;;;;;;;20.92;45.77;92949.72;10479841;28;2603;-60
2023/11/04 16:50:49;;;;;;;;;;;;;;;20.94;45.44;92955.41;10474276;28;2540;-60
2023/11/04 16:55:49;;;;;;;;;;;;;;;20.93;45.33;92932.81;10474516;28;2682;-60
2023/11/04 17:00:50;;;;;;;;;;;;;;;20.94;45.34;92905.38;10478656;28;2751;-60
2023/11/04 17:05:50;;;;;;;;;;;;;;;20.94;46.14;92894.84;10482213;28;5083;-60
2023/11/04 17:10:51;;;;;;;;;;;;;;;20.95;45.76;92871.91;10451531;28;2617;-59
2023/11/04 17:15:52;;;;;;;;;;;;;;;20.90;45.57;92851.88;10457551;28;2560;-59
2023/11/04 17:20:52;;;;;;;;;;;;;;;20.87;45.13;92842.03;10475959;28;2537;-60
2023/11/04 17:25:52;;;;;;;;;;;;;;;20.87;45.83;92843.91;10479024;28;2679;-61
2023/11/04 17:30:53;;;;;;;;;;;;;;;20.85;45.76;92844.25;10499069;28;2614;-60
2023/11/04 17:35:53;;;;;;;;;;;;;;;20.85;45.64;92861.91;10478566;28;2557;-60
2023/11/04 17:40:53;;;;;;;;;;;;;;;20.85;45.61;92849.53;10475816;28;2593;-59
2023/11/04 17:45:54;;;;;;;;;;;;;;;20.83;45.68;92820.16;10480314;28;2563;-60
2023/11/04 17:50:54;;;;;;;;;;;;;;;20.84;45.76;92803.22;10483085;28;2583;-59
2023/11/04 17:55:54;;;;;;;;;;;;;;;20.85;45.56;92807.41;10481699;28;2564;-60
2023/11/04 18:00:55;;;;;;;;;;;;;;;20.86;45.54;92802.88;10486116;28;2695;-58
2023/11/04 18:05:55;;;;;;;;;;;;;;;20.85;45.32;92812.66;10483608;28;2670;-59
2023/11/04 18:10:55;;;;;;;;;;;;;;;20.82;45.85;92817.84;10460491;28;2632;-59
2023/11/04 18:15:56;;;;;;;;;;;;;;;20.85;45.29;92823.19;10470491;28;2595;-60
2023/11/04 18:20:56;;;;;;;;;;;;;;;20.85;45.64;92807.41;10456928;28;2575;-60
2023/11/04 18:25:56;;;;;;;;;;;;;;;20.86;45.24;92789.72;10476798;28;2553;-60
2023/11/04 18:30:57;;;;;;;;;;;;;;;20.86;45.47;92744.97;10475642;28;2597;-60
2023/11/04 18:35:58;;;;;;;;;;;;;;;20.84;45.10;92726.88;10480346;28;2782;-59
2023/11/04 18:40:58;;;;;;;;;;;;;;;20.84;45.15;92697.94;10481339;28;2628;-59
2023/11/04 18:45:59;;;;;;;;;;;;;;;20.82;45.17;92689.63;10475007;28;2635;-59
2023/11/04 18:50:59;;;;;;;;;;;;;;;20.82;45.30;92734.38;10476573;28;2632;-60
2023/11/04 18:55:59;;;;;;;;;;;;;;;20.81;44.68;92769.69;10480088;28;2696;-60
2023/11/04 19:01:00;;;;;;;;;;;;;;;20.83;44.38;92788.56;10456780;28;2612;-60
2023/11/04 19:06:00;;;;;;;;;;;;;;;20.80;44.59;92802.41;10476530;28;5027;-60
2023/11/04 19:11:01;;;;;;;;;;;;;;;20.79;45.03;92792.97;10452507;28;2702;-58
2023/11/04 19:16:01;;;;;;;;;;;;;;;20.78;44.82;92830.94;10473098;28;2572;-60
2023/11/04 19:21:02;;;;;;;;;;;;;;;20.78;44.64;92883.59;10470943;28;2604;-60
2023/11/04 19:26:02;;;;;;;;;;;;;;;20.77;44.47;92915.53;10477834;28;2553;-60
2023/11/04 19:31:03;;;;;;;;;;;;;;;20.75;44.29;92923.00;10476525;28;2631;-59
2023/11/04 19:36:04;;;;;;;;;;;;;;;20.73;44.10;92883.84;10458612;28;2640;-60
2023/11/04 19:41:04;;;;;;;;;;;;;;;20.73;43.91;92804.13;10480664;28;2663;-60
2023/11/04 19:46:04;;;;;;;;;;;;;;;20.72;44.12;92771.78;10479377;28;2616;-60
2023/11/04 19:51:06;;;;;;;;;;;;;;;20.71;43.92;92756.34;10462540;28;2615;-59
2023/11/04 19:56:06;;;;;;;;;;;;;;;20.68;43.87;92749.88;10483875;28;2596;-60
2023/11/04 20:01:07;;;;;;;;;;;;;;;20.69;44.37;92763.81;10472771;28;2640;-59
2023/11/04 20:06:08;;;;;;;;;;;;;;;20.71;43.48;92793.19;10491317;28;5132;-60
2023/11/04 20:11:08;;;;;;;;;;;;;;;20.68;43.77;92804.38;10484435;28;2669;-59
2023/11/04 20:16:08;;;;;;;;;;;;;;;20.67;43.25;92798.34;10479412;28;2658;-60
2023/11/04 20:21:08;;;;;;;;;;;;;;;20.66;43.39;92802.09;10485772;28;2553;-59
2023/11/04 20:26:09;;;;;;;;;;;;;;;20.67;43.53;92792.34;10492061;28;2681;-60
2023/11/04 20:31:09;;;;;;;;;;;;;;;20.64;43.17;92775.38;10488339;28;2635;-60
2023/11/04 20:36:09;;;;;;;;;;;;;;;20.65;42.96;92765.59;10468134;28;2601;-59
2023/11/04 20:41:10;;;;;;;;;;;;;;;20.65;42.63;92774.25;10468895;28;2641;-59
2023/11/04 20:46:10;;;;;;;;;;;;;;;20.62;43.00;92772.31;10481226;28;2723;-60
2023/11/04 20:51:12;;;;;;;;;;;;;;;20.61;42.56;92767.41;10474440;28;2633;-58
2023/11/04 20:56:13;;;;;;;;;;;;;;;20.58;42.78;92716.22;10475695;28;2607;-59
2023/11/04 21:01:16;;;;;;;;;;;;;;;20.56;42.97;92683.47;10472074;28;2567;-59
2023/11/04 21:06:16;;;;;;;;;;;;;;;20.54;42.24;92704.09;10480675;28;5096;-60
2023/11/04 21:11:19;;;;;;;;;;;;;;;20.52;42.38;92717.59;10470117;28;2718;-59
2023/11/04 21:16:19;;;;;;;;;;;;;;;20.51;42.67;92729.22;10476345;28;2714;-59
2023/11/04 21:21:25;;;;;;;;;;;;;;;20.49;42.12;92736.69;10477312;28;2682;-60
2023/11/04 21:26:25;;;;;;;;;;;;;;;20.47;42.34;92725.75;10465958;28;2700;-60
2023/11/04 21:31:25;;;;;;;;;;;;;;;20.45;42.29;92735.88;10479396;28;2572;-60
2023/11/04 21:36:25;;;;;;;;;;;;;;;20.42;42.14;92717.38;10478067;28;2608;-60
2023/11/04 21:41:26;;;;;;;;;;;;;;;20.38;43.71;92700.75;10475683;28;2613;-60
2023/11/04 21:46:26;;;;;;;;;;;;;;;20.35;42.04;92694.31;10460858;28;2535;-59
2023/11/04 21:51:27;;;;;;;;;;;;;;;20.34;42.36;92713.81;10460757;28;2535;-60
2023/11/04 21:56:28;;;;;;;;;;;;;;;20.34;42.76;92723.59;10482258;28;2585;-60
2023/11/04 22:01:28;;;;;;;;;;;;;;;20.31;43.59;92687.44;10460817;28;2574;-60
2023/11/04 22:06:28;;;;;;;;;;;;;;;20.28;44.64;92676.50;10478065;28;5311;-60
2023/11/04 22:11:30;;;;;;;;;;;;;;;20.26;43.76;92697.13;10477685;28;2573;-59
2023/11/04 22:16:30;;;;;;;;;;;;;;;20.24;44.25;92730.13;10477754;28;2642;-60
2023/11/04 22:21:30;;;;;;;;;;;;;;;20.25;43.11;92736.94;10478811;28;2629;-60
2023/11/04 22:26:31;;;;;;;;;;;;;;;20.24;42.68;92717.75;10466699;28;2587;-60
2023/11/04 22:31:31;;;;;;;;;;;;;;;20.22;43.60;92737.63;10475270;28;2674;-59
2023/11/04 22:36:32;;;;;;;;;;;;;;;20.27;42.66;92714.47;10476144;28;2545;-59
2023/11/04 22:41:32;;;;;;;;;;;;;;;20.28;43.35;92736.25;10471055;28;2593;-60
2023/11/04 22:46:32;;;;;;;;;;;;;;;20.30;43.03;92730.66;10472417;28;2593;-60
2023/11/04 22:51:33;;;;;;;;;;;;;;;20.28;43.97;92773.84;10462333;28;2545;-60
2023/11/04 22:56:33;;;;;;;;;;;;;;;20.31;43.80;92774.25;10478253;28;2713;-60
2023/11/04 23:01:33;;;;;;;;;;;;;;;20.34;43.29;92766.44;10472243;28;2543;-59
2023/11/04 23:06:34;;;;;;;;;;;;;;;20.31;43.69;92761.09;10474143;28;5078;-60
2023/11/04 23:11:34;;;;;;;;;;;;;;;20.32;43.75;92752.13;10467197;28;2590;-60
2023/11/04 23:16:34;;;;;;;;;;;;;;;20.31;43.76;92746.09;10466342;28;2650;-60
2023/11/04 23:21:36;;;;;;;;;;;;;;;20.30;43.37;92734.03;10459157;28;2598;-60
2023/11/04 23:26:38;;;;;;;;;;;;;;;20.26;43.70;92709.53;10464121;28;2549;-59
2023/11/04 23:31:38;;;;;;;;;;;;;;;20.22;43.59;92698.94;10446028;28;2637;-60
2023/11/04 23:36:40;;;;;;;;;;;;;;;20.16;44.23;92684.50;10449029;28;2664;-59
2023/11/04 23:41:41;;;;;;;;;;;;;;;20.11;43.94;92713.69;10465816;28;2917;-59
2023/11/04 23:46:41;;;;;;;;;;;;;;;20.08;44.03;92716.25;10461923;28;2667;-59
2023/11/04 23:51:41;;;;;;;;;;;;;;;20.04;44.08;92705.66;10464751;28;2581;-59
2023/11/04 23:56:41;;;;;;;;;;;;;;;20.02;44.23;92701.84;10450949;28;2573;-59
